Home > Products > Valid Products > TAF

000
FTUS45 KABQ 301100 AAA
TAFROW
TAF AMD
KROW 301121Z 3011/0112 VRB06KT P6SM SCT200
     FM302000 22008KT P6SM SCT200=



000
FTUS45 KABQ 301100
TAFROW
TAF
KROW 301120Z 3012/0112 VRB06KT P6SM SKC
     FM302000 22008KT P6SM SKC=



000
FTUS45 KABQ 301100
TAFSAF
TAF
KSAF 301120Z 3012/0112 01008KT P6SM SKC
     FM301930 29010G18KT P6SM FEW200
     FM010200 31006KT P6SM SKC
     FM011100 36006KT P6SM SKC=



000
FTUS45 KABQ 301100
TAFGUP
TAF
KGUP 301120Z 3012/0112 00000KT P6SM SKC
     FM301830 27010G18KT P6SM FEW200
     FM010100 VRB04KT P6SM SKC=



000
FTUS45 KABQ 301100
TAFTCC
TAF
KTCC 301120Z 3012/0112 25010KT P6SM FEW060
     FM301800 25015G25KT P6SM SKC
     FM010200 24010KT P6SM SKC=



000
FTUS45 KABQ 301100
TAFFMN
TAF
KFMN 301120Z 3012/0112 07005KT P6SM SKC
     FM301900 29010G18KT P6SM FEW200
     FM010200 VRB04KT P6SM SKC
     FM011000 08007KT P6SM SKC=



000
FTUS45 KABQ 301100
TAFLVS
TAF
KLVS 301120Z 3012/0112 VRB05KT P6SM SKC
     FM301530 25010KT P6SM SKC
     FM301800 24015G25KT P6SM FEW200
     FM010200 25010KT P6SM SKC
     FM010500 VRB05KT P6SM SKC=



000
FTUS45 KABQ 301100
TAFABQ
TAF
KABQ 301120Z 3012/0112 VRB05KT P6SM SKC
      TEMPO 3020/3024 28010G15KT FEW200=



000
FTUS45 KABQ 300500
TAFSAF
TAF
KSAF 300534Z 3006/0106 01008KT P6SM SKC
     FM301800 29010G18KT P6SM FEW100
     FM010100 35006KT P6SM SKC=



000
FTUS45 KABQ 300500
TAFGUP
TAF
KGUP 300534Z 3006/0106 VRB03KT P6SM SKC
     FM301800 27011G18KT P6SM FEW120
     FM010100 VRB04KT P6SM SKC=



000
FTUS45 KABQ 300500
TAFABQ
TAF
KABQ 300534Z 3006/0106 35008KT P6SM SKC
     FM301800 29008G15KT P6SM FEW100
     FM010100 34005KT P6SM SKC=



000
FTUS45 KABQ 300500
TAFROW
TAF
KROW 300534Z 3006/0106 17009KT P6SM FEW080 SCT120
     FM301200 24006KT P6SM SKC
     FM301600 35006KT P6SM FEW090
     FM302000 22008KT P6SM SCT100=



000
FTUS45 KABQ 300500
TAFLVS
TAF
KLVS 300534Z 3006/0106 19009KT P6SM SKC
     FM301500 25010KT P6SM SKC
     FM301800 24015G25KT P6SM SCT090
     FM010100 25010KT P6SM SKC=



000
FTUS45 KABQ 300500
TAFFMN
TAF
KFMN 300534Z 3006/0106 04004KT P6SM SKC
     FM301000 07005KT P6SM SKC
     FM301800 28010G17KT P6SM FEW120
     FM010100 VRB04KT P6SM SKC=



000
FTUS45 KABQ 300500
TAFTCC
TAF
KTCC 300534Z 3006/0106 20012G20KT P6SM VCSH FEW050 BKN080
     FM300700 22010KT P6SM SCT100
     FM301500 25010KT P6SM SKC
     FM301800 25015G25KT P6SM SCT090
     FM010200 24010KT P6SM SKC=



000
FTUS45 KABQ 300200 AAA
TAFFMN
TAF AMD
KFMN 300213Z 3002/3024 33006KT P6SM FEW080
     FM301000 07005KT P6SM SKC
     FM301800 28010KT P6SM FEW120=



000
FTUS45 KABQ 300200 AAA
TAFTCC
TAF AMD
KTCC 300213Z 3002/3024 19018G28KT P6SM VCTS SCT060CB BKN110
      TEMPO 3002/3004 VRB25G40KT 6SM TSRA SCT030CB OVC050
     FM300400 20012G20KT P6SM VCSH FEW050 SCT100
     FM300600 22010KT P6SM FEW100
     FM301500 25010KT P6SM SKC
     FM301800 25015G25KT P6SM SCT090=



000
FTUS45 KABQ 300200 AAA
TAFLVS
TAF AMD
KLVS 300213Z 3002/3024 22009KT P6SM SKC
     FM301500 22010KT P6SM SKC
     FM301800 23015G25KT P6SM SCT090=



000
FTUS45 KABQ 292300
TAFROW
TAF
KROW 292324Z 3000/3024 16018G26KT P6SM SCT090
     FM300100 17014G22KT P6SM VCTS SCT050CB BKN080
      TEMPO 3001/3003 SHRA BKN040
     FM300300 17008KT P6SM SCT060
     FM300900 21006KT P6SM SKC
     FM301600 04006KT P6SM FEW090=



000
FTUS45 KABQ 292300
TAFTCC
TAF
KTCC 292324Z 3000/3024 19020G30KT P6SM VCTS BKN060CB
      TEMPO 3000/3002 VRB30G45KT 6SM TSRA SCT030CB BKN050
     FM300200 20013G20KT P6SM VCSH FEW050 SCT100
     FM300400 22010KT P6SM FEW100
     FM301500 25010KT P6SM SKC
     FM301800 25015G25KT P6SM SCT090=



000
FTUS45 KABQ 292300
TAFLVS
TAF
KLVS 292324Z 3000/3024 20020G30KT P6SM VCTS FEW040CB BKN080
     FM300100 22014G22KT P6SM FEW060 SCT120
     FM300600 24009KT P6SM FEW120
     FM301500 22010KT P6SM SKC
     FM301800 23015G25KT P6SM SCT090=



000
FTUS45 KABQ 292300
TAFSAF
TAF
KSAF 292324Z 3000/3024 28010G18KT P6SM BKN090
     FM300200 30007KT P6SM SCT100
     FM300800 36006KT P6SM SKC
     FM301800 30010KT P6SM FEW100=



000
FTUS45 KABQ 292300
TAFGUP
TAF
KGUP 292324Z 3000/3024 25018G26KT P6SM FEW070
     FM300200 28006KT P6SM SKC
     FM300600 VRB03KT P6SM SKC
     FM301800 25010KT P6SM FEW120=



000
FTUS45 KABQ 292300
TAFABQ
TAF
KABQ 292324Z 3000/3024 28018G27KT P6SM VCSH FEW060 SCT100
     FM300200 30008KT P6SM FEW100
     FM300800 35006KT P6SM SKC
     FM301800 29008KT P6SM FEW100=



000
FTUS45 KABQ 292300
TAFFMN
TAF
KFMN 292324Z 3000/3024 30011G22KT P6SM SCT100
     FM300400 35006KT P6SM FEW080
     FM301000 07005KT P6SM SKC
     FM301800 28010KT P6SM FEW120=



000
FTUS45 KABQ 292100 AAB
TAFROW
TAF AMD
KROW 292158Z 2922/3018 16015G25KT P6SM VCTS SCT040CB SCT070
     FM300000 17016G22KT P6SM VCSH SCT050 BKN080
     FM300300 17007KT P6SM SCT060=



000
FTUS45 KABQ 292100 AAA
TAFROW
TAF AMD
KROW 292122Z 2921/3018 16013G18KT P6SM VCTS SCT040CB SCT070
     FM300000 17016G22KT P6SM VCSH SCT050 BKN080
     FM300300 17007KT P6SM SCT060=



000
FTUS45 KABQ 292100 AAB
TAFFMN
TAF AMD
KFMN 292119Z 2921/3018 21010G20KT P6SM BKN080
      TEMPO 2921/2924 26012G25KT
     FM300100 30010KT P6SM FEW100
     FM300400 VRB05KT P6SM FEW080=



000
FTUS45 KABQ 292000 AAA
TAFFMN
TAF AMD
KFMN 292016Z 2920/3018 21010G20KT P6SM VCTS BKN080CB
      TEMPO 2920/2924 26012G25KT
     FM300100 30010KT P6SM FEW100
     FM300400 VRB05KT P6SM FEW080=



000
FTUS45 KABQ 291800 AAA
TAFABQ
TAF AMD
KABQ 291827Z 2918/3018 20017G28KT P6SM VCSH SCT060 BKN070
      TEMPO 2919/2922 VRB20G32KT -TSRA BKN050CB OVC070
     FM292200 23018G26KT P6SM VCSH SCT050 BKN080
     FM300200 29007KT P6SM SKC=



000
FTUS45 KABQ 291700 RRA
TAFTCC
TAF
KTCC 291743Z 2918/3018 20016G28KT P6SM SCT060 BKN080
     FM292200 20019G28KT P6SM VCTS SCT050CB BKN070
      TEMPO 2923/3002 VRB23G40KT 4SM TSRA SCT020CB BKN030
     FM300200 19013KT P6SM FEW060 SCT120
     FM300900 23012KT P6SM FEW060=



000
FTUS45 KABQ 291700 RRA
TAFROW
TAF
KROW 291743Z 2918/3018 16013G18KT P6SM SCT040 SCT070
     FM300000 17016G22KT P6SM VCSH SCT050 BKN080
     FM300300 17007KT P6SM SCT060=



000
FTUS45 KABQ 291700 RRA
TAFLVS
TAF
KLVS 291743Z 2918/3018 20019G29KT P6SM VCSH BKN020
     FM292000 20023G38KT P6SM VCTS SCT040CB BKN050
      TEMPO 2920/2923 VRB25G40KT 4SM TSRAGS SCT020CB BKN030
     FM292300 22023G33KT P6SM VCSH SCT040 BKN060
     FM300200 23012KT P6SM FEW060 SCT120
     FM300700 21011KT P6SM SKC=



000
FTUS45 KABQ 291700 RRA
TAFABQ
TAF
KABQ 291743Z 2918/3018 20012G23KT P6SM VCSH SCT060 BKN090
     FM291930 20017G28KT P6SM VCTS SCT060CB BKN070
      TEMPO 2920/2922 VRB18G30KT -TSRA BKN050CB OVC070
     FM292200 23018G26KT P6SM VCSH SCT050 BKN080
     FM300200 29007KT P6SM SKC=



000
FTUS45 KABQ 291700 RRA
TAFSAF
TAF
KSAF 291743Z 2918/3018 20015G28KT P6SM VCSH BKN080
     FM291930 20015G25KT P6SM VCTS SCT060CB BKN080
      TEMPO 2920/2923 VRB20G35KT 4SM TSRA SCT030CB BKN040
     FM292300 24014KT P6SM VCSH BKN080
     FM300200 30007KT P6SM FEW100
     FM300800 36006KT P6SM SKC=



000
FTUS45 KABQ 291700 RRA
TAFFMN
TAF
KFMN 291743Z 2918/3018 21010G20KT P6SM VCSH BKN080
      TEMPO 2920/2924 26012G25KT
     FM300100 30010KT P6SM FEW100
     FM300400 VRB05KT P6SM FEW080=



000
FTUS45 KABQ 291700 RRA
TAFGUP
TAF
KGUP 291743Z 2918/3018 22016G29KT P6SM VCTS BKN050CB
     FM292100 24020G35KT P6SM FEW070
     FM300200 VRB05KT P6SM SKC=



000
FTUS45 KABQ 291500 AAD
TAFGUP
TAF AMD
KGUP 291547Z 2916/3012 26004KT 2SM TSRA BR BKN040CB OVC050
     FM291630 22011G21KT P6SM SCT060 BKN090
     FM291900 24018G27KT P6SM FEW070
     FM300200 VRB03KT P6SM SKC=



000
FTUS45 KABQ 291500 AAC
TAFGUP
TAF AMD
KGUP 291512Z 2915/3012 VRB03KT 4SM -RA BR BKN040 OVC070
     FM291630 22011G21KT P6SM SCT060 BKN090
     FM291900 24018G27KT P6SM FEW070
     FM300200 VRB03KT P6SM SKC=



000
FTUS45 KABQ 291500 AAB
TAFGUP
TAF AMD
KGUP 291501Z 2915/3012 VRB03KT 1 1/2SM +TSRA BR FEW024 BKN040
      OVC070CB
     FM291630 22011G21KT P6SM SCT060 BKN090
     FM291900 24018G27KT P6SM FEW070
     FM300200 VRB03KT P6SM SKC=



000
FTUS45 KABQ 291500 AAA
TAFGUP
TAF AMD
KGUP 291500Z 2915/3012 VRB04KT 4SM -TSRA BKN040CB
     FM291630 22011G21KT P6SM SCT060 BKN090
     FM291900 24018G27KT P6SM FEW070
     FM300200 VRB03KT P6SM SKC=



000
FTUS45 KABQ 291400 AAC
TAFROW
TAF AMD
KROW 291453Z 2915/3012 15004KT 6SM BR FEW010 SCT090
     FM291500 16007KT P6SM FEW030
     FM291900 15010G18KT P6SM FEW050
     FM300000 17010KT P6SM VCSH SCT050 BKN100
     FM300300 17007KT P6SM SCT060=



000
FTUS45 KABQ 291300 AAA
TAFLVS
TAF AMD
KLVS 291354Z 2914/3012 17010KT P6SM SCT004 BKN010 OVC021
     FM291500 19012KT P6SM SCT015 BKN025
     FM291600 20014G24KT P6SM SCT030 SCT060
     FM292000 20023G33KT P6SM VCTS SCT060CB BKN100
     FM292300 21023G33KT P6SM FEW060 SCT100
     FM300200 21012KT P6SM FEW060=



000
FTUS45 KABQ 291300 AAB
TAFROW
TAF AMD
KROW 291315Z 2913/3012 00000KT 1/4SM FG VV004
     FM291430 15004KT 2SM BR SCT004
     FM291500 16007KT P6SM FEW030
     FM291900 15010G18KT P6SM FEW050
     FM300000 17010KT P6SM VCSH SCT050 BKN100
     FM300300 17007KT P6SM SCT060=



000
FTUS45 KABQ 291300 AAA
TAFROW
TAF AMD
KROW 291305Z 2913/3012 00000KT 3/4SM BR SKC
      TEMPO 2913/2915 3SM BR SCT002
     FM291600 16007KT P6SM FEW035
     FM291900 15010G18KT P6SM FEW050
     FM300000 17010KT P6SM VCSH SCT050 BKN100
     FM300300 17007KT P6SM SCT060=



000
FTUS45 KABQ 291100
TAFROW
TAF
KROW 291138Z 2912/3012 16008KT P6SM VCFG FEW025
      TEMPO 2912/2915 3SM BR BKN018
     FM291600 16007KT P6SM FEW035
     FM291900 15010G18KT P6SM FEW050
     FM300000 17010KT P6SM VCSH SCT050 BKN100
     FM300300 17007KT P6SM SCT060=



000
FTUS45 KABQ 291100
TAFTCC
TAF
KTCC 291138Z 2912/3012 18012KT P6SM FEW035
     FM291600 20012G22KT P6SM SCT050
     FM292100 20016G28KT P6SM SCT060
     FM292300 20016G26KT P6SM VCTS SCT060CB BKN120
     FM300200 19015G25KT P6SM FEW060 SCT120
     FM300500 20011KT P6SM FEW060=



000
FTUS45 KABQ 291100
TAFSAF
TAF
KSAF 291138Z 2912/3012 15008KT P6SM SCT060
     FM291700 20011KT P6SM SCT060 SCT100
     FM292000 20015G25KT P6SM VCTS SCT060CB BKN100
     FM292300 24014KT P6SM FEW060 SCT110
     FM300200 31007KT P6SM SKC=



000
FTUS45 KABQ 291100
TAFABQ
TAF
KABQ 291138Z 2912/3012 13008KT P6SM SCT060
     FM291700 19010G16KT P6SM SCT060 SCT120
     FM292000 20015G25KT P6SM VCTS SCT060CB BKN110
     FM292200 23015G25KT P6SM FEW060 SCT150
     FM300200 28007KT P6SM SKC=



000
FTUS45 KABQ 291100
TAFGUP
TAF
KGUP 291138Z 2912/3012 VRB04KT P6SM SCT060 BKN090
     FM291630 22011G21KT P6SM SCT060 BKN090
     FM291900 24018G27KT P6SM FEW070
     FM300200 VRB03KT P6SM SKC=



000
FTUS45 KABQ 291100
TAFLVS
TAF
KLVS 291138Z 2912/3012 19010KT P6SM OVC018
      TEMPO 2912/2914 BKN005
     FM291600 20014G24KT P6SM SCT030 SCT060
     FM292000 20023G33KT P6SM VCTS SCT060CB BKN100
     FM292300 21023G33KT P6SM FEW060 SCT100
     FM300200 21012KT P6SM FEW060=



000
FTUS45 KABQ 291100
TAFFMN
TAF
KFMN 291138Z 2912/3012 08006KT P6SM BKN070
     FM291630 17010KT P6SM VCSH SCT050 BKN080
     FM291900 24010G18KT P6SM FEW070 SCT110
      TEMPO 2921/2923 28016G26KT
     FM300000 28011KT P6SM FEW070
     FM300400 VRB05KT P6SM SKC=



000
FTUS45 KABQ 290500
TAFLVS
TAF
KLVS 290527Z 2906/3006 19010KT P6SM OVC011
      TEMPO 2909/2913 BKN005
     FM291500 20015G24KT P6SM SCT030 BKN070
     FM291900 20023G33KT P6SM VCTS SCT060CB BKN100
     FM292300 21023G33KT P6SM FEW060 SCT100
     FM300200 21012KT P6SM SCT120=



000
FTUS45 KABQ 290500
TAFROW
TAF
KROW 290527Z 2906/3006 16008KT P6SM FEW060
      TEMPO 2910/2914 BKN020
     FM291800 16011G19KT P6SM SCT050
     FM292200 15012G20KT P6SM SCT050 BKN120
     FM300000 17010KT P6SM VCSH SCT050 BKN100
     FM300300 17007KT P6SM SCT120=



000
FTUS45 KABQ 290500
TAFSAF
TAF
KSAF 290527Z 2906/3006 14010KT P6SM SCT090
     FM291000 15008KT P6SM BKN070
     FM291800 20010KT P6SM VCTS SCT060CB BKN100
     FM292200 20015G25KT P6SM VCSH SCT060 BKN100
     FM300000 24014KT P6SM SCT100
     FM300300 31007KT P6SM SKC=



000
FTUS45 KABQ 290500
TAFTCC
TAF
KTCC 290527Z 2906/3006 18012KT P6SM SCT045
      TEMPO 2910/2914 BKN025
     FM291600 20012G19KT P6SM SCT060
     FM291900 20016G26KT P6SM SCT060
     FM292300 20016G26KT P6SM VCTS SCT060CB BKN120
     FM300200 19015G25KT P6SM SCT120=



000
FTUS45 KABQ 290500
TAFABQ
TAF
KABQ 290527Z 2906/3006 16009KT P6SM SCT100
     FM291000 13008KT P6SM BKN070
     FM291700 19012KT P6SM SCT080 BKN100
     FM291900 20015G25KT P6SM VCSH SCT070 BKN100
     FM292300 23015G25KT P6SM SCT100
     FM300200 VRB05KT P6SM SKC=



000
FTUS45 KABQ 290500
TAFGUP
TAF
KGUP 290527Z 2906/3006 VRB04KT P6SM SCT050
     FM290800 VRB04KT P6SM SCT040 BKN070
     FM291530 22014G22KT P6SM SCT070 BKN100
     FM291900 24018G27KT P6SM FEW100
     FM300200 25007KT P6SM SKC=



000
FTUS45 KABQ 290500
TAFFMN
TAF
KFMN 290527Z 2906/3006 09010KT P6SM SCT080
     FM291000 08006KT P6SM BKN080
     FM291800 21010KT P6SM VCSH BKN080
     FM292100 26013G20KT P6SM SCT110
     FM300200 VRB05KT P6SM FEW200=



000
FTUS45 KABQ 290400 AAA
TAFLVS
TAF AMD
KLVS 290430Z 2905/2924 18010KT P6SM BKN015
     FM290800 19009KT P6SM OVC015
     FM291500 20015G24KT P6SM SCT030 BKN070
     FM292000 20020G30KT P6SM VCTS SCT060CB BKN100=



000
FTUS45 KABQ 282300
TAFTCC
TAF
KTCC 282330Z 2900/2924 17011KT P6SM SCT060
      TEMPO 2910/2914 BKN025
     FM291600 20012G19KT P6SM SCT060
     FM291900 20016G26KT P6SM SCT060
     FM292300 20016G26KT P6SM VCTS SCT060CB BKN120=



000
FTUS45 KABQ 282300
TAFROW
TAF
KROW 282330Z 2900/2924 16011KT P6SM FEW050
     FM291000 15007KT P6SM BKN020
     FM291800 16011G19KT P6SM SCT050
     FM292200 15012G20KT P6SM SCT050 BKN120=



000
FTUS45 KABQ 282300
TAFGUP
TAF
KGUP 282330Z 2900/2924 20011KT P6SM VCSH SCT045 BKN070
     FM290100 20008KT P6SM SCT080
     FM290700 19007KT P6SM SCT040 BKN070
     FM291530 22014G22KT P6SM SCT070 BKN100
     FM291900 24018G26KT P6SM FEW100=



000
FTUS45 KABQ 282300
TAFSAF
TAF
KSAF 282330Z 2900/2924 21010KT P6SM VCSH SCT060 BKN100
     FM290300 14011KT P6SM SCT060 BKN090
     FM290600 15010KT P6SM BKN060
     FM291800 20010KT P6SM SCT060 BKN100
     FM292000 20015G25KT P6SM VCTS SCT060CB BKN100=



000
FTUS45 KABQ 282300
TAFFMN
TAF
KFMN 282330Z 2900/2924 11010KT P6SM VCSH FEW030 BKN080
     FM290200 VRB05KT P6SM SCT080
     FM290800 08006KT P6SM BKN080
     FM291800 21010KT P6SM SCT080
     FM292100 23013KT P6SM VCSH BKN080=



000
FTUS45 KABQ 282300
TAFABQ
TAF
KABQ 282330Z 2900/2924 18014G22KT P6SM SCT070 SCT100
     FM290200 15009KT P6SM SCT070 SCT100
     FM290800 13008KT P6SM BKN070
     FM291800 18010KT P6SM SCT080 BKN100
     FM292000 20015G25KT P6SM VCSH SCT070 BKN100
     FM292300 23015G25KT P6SM SCT100=



000
FTUS45 KABQ 282300
TAFLVS
TAF
KLVS 282330Z 2900/2924 17014G22KT P6SM VCTS SCT060CB BKN090
      TEMPO 2900/2902 VRB15G25KT -TSRA BKN060CB
     FM290300 19011KT P6SM SCT025 BKN050
     FM290500 20010KT P6SM BKN025
     FM290800 19009KT P6SM OVC015
     FM291500 20015G24KT P6SM SCT030 BKN070
     FM292000 20020G30KT P6SM VCTS SCT060CB BKN100=



000
FTUS45 KABQ 282200 AAA
TAFLVS
TAF AMD
KLVS 282200Z 2822/2918 19016G24KT P6SM VCSH SCT040 BKN100
     FM290000 19014KT P6SM VCTS SCT060CB BKN090
     FM290300 19011KT P6SM BKN050
     FM290900 20010KT P6SM VCSH BKN025 BKN070
     FM291500 20015G24KT P6SM VCSH BKN030 BKN080=



000
FTUS45 KABQ 282200 AAA
TAFTCC
TAF AMD
KTCC 282200Z 2822/2918 19012G20KT P6SM SCT060
     FM290200 18011KT P6SM SCT040 SCT100
      TEMPO 2910/2914 BKN025=



000
FTUS45 KABQ 282200 AAA
TAFROW
TAF AMD
KROW 282200Z 2822/2918 16011G18KT P6SM FEW050 SCT200
     FM290800 15007KT P6SM BKN020=



000
FTUS45 KABQ 281700 RRA
TAFGUP
TAF
KGUP 281740Z 2818/2918 20012G20KT P6SM VCSH BKN040 BKN070
     FM281930 21017G26KT P6SM BKN070
      TEMPO 2821/2901 VRB18G29KT 5SM TSRA BKN040CB BKN080
     FM290100 14008KT P6SM VCSH BKN070
     FM290400 22008KT P6SM SCT080
     FM291530 22014G22KT P6SM SCT070 BKN100=



000
FTUS45 KABQ 281700 RRA
TAFFMN
TAF
KFMN 281740Z 2818/2918 VRB06KT P6SM VCSH BKN070
     FM282000 19011G20KT P6SM SCT060 BKN080
      TEMPO 2822/2902 VRB17G28KT 5SM TSRA BKN040CB OVC080
     FM290200 14008KT P6SM VCSH BKN070
     FM290600 VRB06KT P6SM BKN100=



000
FTUS45 KABQ 281700 RRA
TAFROW
TAF
KROW 281740Z 2818/2918 17007KT P6SM BKN020
     FM281930 16010KT P6SM SCT050
     FM290900 16005KT P6SM BKN020=



000
FTUS45 KABQ 281700 RRA
TAFLVS
TAF
KLVS 281740Z 2818/2918 17013G20KT P6SM SCT025 BKN035
     FM282000 19016G24KT P6SM SCT040 BKN100
     FM290000 19014KT P6SM VCTS BKN060CB
     FM290300 19011KT P6SM BKN050
     FM290700 20010KT P6SM OVC018=



000
FTUS45 KABQ 281700 RRA
TAFSAF
TAF
KSAF 281740Z 2818/2918 16015G23KT P6SM SCT050 BKN070
     FM282100 19014G23KT P6SM VCTS BKN060CB
     FM290000 19010KT P6SM VCSH BKN060
     FM290400 14011KT P6SM BKN050
     FM291100 16010KT P6SM VCSH BKN060=



000
FTUS45 KABQ 281700 RRA
TAFABQ
TAF
KABQ 281740Z 2818/2918 20014G23KT P6SM SCT050 BKN090
     FM282100 19014G22KT P6SM VCSH BKN060
     FM290000 17012G18KT P6SM VCSH SCT060 BKN090
     FM290400 14009KT P6SM BKN060
     FM291100 16010KT P6SM VCSH BKN060=



000
FTUS45 KABQ 281700 RRA
TAFTCC
TAF
KTCC 281740Z 2818/2918 20010KT P6SM BKN025
     FM281900 19014G22KT P6SM SCT050
     FM290200 18010KT P6SM BKN100=



000
FTUS45 KABQ 281300 AAA
TAFGUP
TAF AMD
KGUP 281346Z 2814/2912 19010KT P6SM VCSH SCT040 OVC070
      TEMPO 2814/2816 3SM TSRA OVC020CB
     FM281600 20012G20KT P6SM VCTS BKN040CB
     FM281900 21015G23KT P6SM BKN070
     FM290200 22008KT P6SM BKN090=



000
FTUS45 KABQ 281300 AAA
TAFTCC
TAF AMD
KTCC 281335Z 2814/2912 21007KT P6SM BKN015
     FM281500 20010KT P6SM BKN025
     FM281700 19014G22KT P6SM SCT050
     FM290200 18010KT P6SM BKN100=



000
FTUS45 KABQ 281300 AAA
TAFLVS
TAF AMD
KLVS 281335Z 2814/2912 17010KT P6SM FEW003 BKN025
     FM281600 19016G24KT P6SM SCT040 BKN100
     FM290000 19014KT P6SM VCTS BKN060CB
     FM290300 19011KT P6SM BKN050
     FM290700 20010KT P6SM OVC015=



000
FTUS45 KABQ 281300 AAA
TAFROW
TAF AMD
KROW 281334Z 2814/2912 19004KT P6SM OVC007
     FM281500 17007KT P6SM BKN020
     FM281800 16010KT P6SM SCT050
     FM290900 16005KT P6SM BKN020=



000
FTUS45 KABQ 281300 AAB
TAFFMN
TAF AMD
KFMN 281313Z 2813/2912 26009KT P6SM SHRA OVC050
      TEMPO 2813/2817 2SM TSRA BKN025CB
     FM281700 16009KT P6SM VCSH BKN050
     FM281900 19014G22KT P6SM BKN080
     FM290100 21012KT P6SM OVC100
     FM290400 18009KT P6SM BKN100=



000
FTUS45 KABQ 281200 AAA
TAFFMN
TAF AMD
KFMN 281252Z 2813/2912 26009KT P6SM VCTS BKN050CB
      TEMPO 2813/2817 4SM -RA OVC040
     FM281700 16009KT P6SM VCSH BKN050
     FM281900 19014G22KT P6SM BKN080
     FM290100 21012KT P6SM OVC100
     FM290400 18009KT P6SM BKN100=



000
FTUS45 KABQ 281100
TAFROW
TAF
KROW 281127Z 2812/2912 14003KT 3SM BR SCT002
      TEMPO 2812/2814 1/2SM FG BKN002
     FM281500 16007KT P6SM BKN020
     FM281800 16010KT P6SM SCT050
     FM290900 16005KT P6SM BKN020=



000
FTUS45 KABQ 281100
TAFGUP
TAF
KGUP 281127Z 2812/2912 00000KT P6SM SCT040 OVC070
      TEMPO 2812/2816 4SM TSRA OVC030CB
     FM281600 20012G20KT P6SM VCTS BKN040CB
     FM281900 21015G23KT P6SM BKN070
     FM290200 22008KT P6SM BKN090=



000
FTUS45 KABQ 281100
TAFSAF
TAF
KSAF 281127Z 2812/2912 16009KT P6SM VCSH FEW020 BKN070
     FM281700 18010KT P6SM SCT050 BKN100
     FM282100 19012G20KT P6SM VCTS BKN060CB
     FM290000 19010KT P6SM VCSH BKN060
     FM290400 14011KT P6SM BKN050=



000
FTUS45 KABQ 281100
TAFABQ
TAF
KABQ 281127Z 2812/2912 16006KT P6SM FEW050 BKN100
     FM281600 17013KT P6SM FEW050 BKN100
     FM282100 19014G22KT P6SM VCTS BKN070CB
     FM290000 20012KT P6SM VCSH OVC070
     FM290400 14008KT P6SM BKN060=



000
FTUS45 KABQ 281100
TAFFMN
TAF
KFMN 281127Z 2812/2912 09010KT P6SM BKN060 OVC100
      TEMPO 2812/2816 4SM RA OVC040
     FM281600 16009KT P6SM VCTS BKN040CB
     FM281900 19014G22KT P6SM BKN080
     FM290100 21012KT P6SM OVC100
     FM290400 18009KT P6SM BKN100=



000
FTUS45 KABQ 281100
TAFTCC
TAF
KTCC 281127Z 2812/2912 20008KT P6SM BKN025
      TEMPO 2812/2815 4SM BR OVC018
     FM281700 19014G22KT P6SM SCT050
     FM290200 18010KT P6SM BKN100=



000
FTUS45 KABQ 281100
TAFLVS
TAF
KLVS 281127Z 2812/2912 19008KT P6SM FEW007 OVC012
      TEMPO 2812/2815 4SM BR BKN007
     FM281600 20016G24KT P6SM SCT040 BKN100
     FM290000 19014KT P6SM VCTS BKN060CB
     FM290300 19011KT P6SM BKN050
     FM290700 20010KT P6SM OVC015=



000
FTUS45 KABQ 281000 AAA
TAFFMN
TAF AMD
KFMN 281014Z 2810/2906 11008KT P6SM BKN050 OVC080
      TEMPO 2810/2814 4SM RA OVC040
     FM281400 12009KT P6SM VCSH SCT040 BKN070
     FM281800 19010KT P6SM BKN110=



000
FTUS45 KABQ 280500
TAFSAF
TAF
KSAF 280538Z 2806/2906 14009KT P6SM SCT090
     FM281000 14009KT P6SM SCT050 BKN090
     FM281300 13009KT P6SM VCSH BKN060
     FM281700 18010KT P6SM SCT060 BKN100
     FM282000 20010G18KT P6SM SCT060 BKN090
     FM290200 13008KT P6SM SCT050 BKN090=



000
FTUS45 KABQ 280500
TAFROW
TAF
KROW 280538Z 2806/2906 15006KT P6SM SCT050
     FM280900 16005KT P6SM BKN025
     FM281100 16005KT P6SM OVC010
      TEMPO 2811/2814 2SM BR OVC008
     FM281700 16009KT P6SM FEW012 SCT050
     FM282100 15009KT P6SM SCT050=



000
FTUS45 KABQ 280500
TAFTCC
TAF
KTCC 280538Z 2806/2906 18010KT P6SM SCT035
     FM281000 20007KT P6SM FEW025 BKN035
      TEMPO 2810/2814 BKN022
     FM281800 20010G19KT P6SM SCT035
     FM290100 18010KT P6SM SCT080=



000
FTUS45 KABQ 280500
TAFLVS
TAF
KLVS 280538Z 2806/2906 18011KT P6SM OVC012
      TEMPO 2806/2809 3SM BR BKN008
     FM280900 18011KT P6SM OVC008
      TEMPO 2809/2812 2SM BR OVC003
     FM281300 19010KT P6SM BKN025
     FM281600 19015G25KT P6SM SCT060 SCT100
     FM290100 20010KT P6SM SCT050 BKN090=



000
FTUS45 KABQ 280500
TAFABQ
TAF
KABQ 280538Z 2806/2906 14008KT P6SM FEW060 SCT150
     FM281000 12007KT P6SM VCSH SCT050 BKN080
     FM281600 17012KT P6SM FEW060 BKN090
     FM282000 19012G20KT P6SM SCT060 BKN100
     FM290200 13010KT P6SM SCT050 BKN080=



000
FTUS45 KABQ 280500
TAFGUP
TAF
KGUP 280538Z 2806/2906 20010KT P6SM VCTS SCT020 BKN060CB
      TEMPO 2806/2810 -SHRA BKN018
     FM281100 20010KT P6SM VCSH SCT020 BKN050
     FM281700 21014G23KT P6SM SCT060 SCT100
     FM290200 22010KT P6SM BKN080=



000
FTUS45 KABQ 280500
TAFFMN
TAF
KFMN 280538Z 2806/2906 12010KT P6SM VCTS BKN070CB
      TEMPO 2806/2810 VRB15G25KT -SHRA BKN035
     FM281000 12009KT P6SM VCSH SCT040 BKN070
     FM281800 19010KT P6SM BKN110=



000
FTUS45 KABQ 280400 AAA
TAFGUP
TAF AMD
KGUP 280423Z 2804/2824 20010KT P6SM VCTS BKN060CB
      TEMPO 2804/2808 VRB15G25KT 5SM -SHRA BKN020
     FM281100 20010KT P6SM SCT050 BKN090
     FM281800 21013G23KT P6SM SCT060 SCT100=



000
FTUS45 KABQ 280400 AAA
TAFLVS
TAF AMD
KLVS 280421Z 2804/2824 18011KT P6SM BKN015
      TEMPO 2810/2814 3SM BR BKN010
     FM281700 19015G25KT P6SM SCT100=



000
FTUS45 KABQ 272300
TAFFMN
TAF
KFMN 272334Z 2800/2824 20010G20KT P6SM VCTS SCT070CB BKN110
      TEMPO 2800/2802 VRB15G25KT -TSRA OVC050CB
     FM280200 17011KT P6SM SCT060 BKN100
     FM280800 13010KT P6SM VCTS BKN040CB
     FM281200 16007KT P6SM FEW060 BKN110
     FM281800 19010KT P6SM BKN070=



000
FTUS45 KABQ 272300
TAFROW
TAF
KROW 272334Z 2800/2824 16010KT P6SM FEW035
     FM280400 15006KT P6SM SCT030
     FM280900 16005KT P6SM VCFG BKN009
     FM281700 16009KT P6SM FEW012=



000
FTUS45 KABQ 272300
TAFSAF
TAF
KSAF 272334Z 2800/2824 21008KT P6SM FEW060 SCT090
     FM280100 14009KT P6SM SCT050 SCT090
     FM281300 13009KT P6SM VCSH BKN060
     FM281700 18010KT P6SM SCT060 BKN100
     FM282000 20010G18KT P6SM SCT060 SCT090=



000
FTUS45 KABQ 272300
TAFTCC
TAF
KTCC 272334Z 2800/2824 18013G21KT P6SM SCT050
     FM280200 18010KT P6SM SCT050
     FM281000 20007KT P6SM FEW025 BKN035
      TEMPO 2810/2814 BKN022
     FM281800 20010G19KT P6SM SCT035=



000
FTUS45 KABQ 272300
TAFABQ
TAF
KABQ 272334Z 2800/2824 18012G21KT P6SM SCT060
     FM280200 14008KT P6SM FEW060
     FM280600 10008KT P6SM FEW060 SCT150
     FM281200 12007KT P6SM VCSH SCT050 BKN080
     FM281600 17012KT P6SM FEW060 BKN090
     FM282000 19012G20KT P6SM SCT060 BKN100=



000
FTUS45 KABQ 272300
TAFLVS
TAF
KLVS 272334Z 2800/2824 17015G25KT P6SM FEW050
     FM280200 18011KT P6SM SCT080
     FM280900 19008KT P6SM VCFG FEW012
      TEMPO 2810/2814 3SM BR BKN010
     FM281700 19015G25KT P6SM SCT100=



000
FTUS45 KABQ 272300
TAFGUP
TAF
KGUP 272334Z 2800/2824 22011KT P6SM VCSH SCT060 BKN090
      TEMPO 2800/2801 VRB15G25KT -TSRA OVC050CB
     FM280200 19010KT P6SM SCT060 BKN100
     FM280600 20010KT P6SM VCTS BKN060CB
      TEMPO 2806/2810 VRB15G25KT 5SM -TSRA BKN035CB
     FM281100 20010KT P6SM SCT050 BKN090
     FM281800 21013G23KT P6SM SCT060 SCT100=



000
FTUS45 KABQ 272100 AAA
TAFTCC
TAF AMD
KTCC 272136Z 2722/2818 21016G24KT P6SM SCT050
     FM280300 18010KT P6SM SCT050
     FM281000 20007KT P6SM FEW025 BKN035
      TEMPO 2810/2814 BKN022
     FM281700 20010G16KT P6SM SCT035=



000
FTUS45 KABQ 271900 AAA
TAFROW
TAF AMD
KROW 271946Z 2720/2818 16010G16KT P6SM BKN028
      TEMPO 2720/2721 SCT035
     FM272100 16010KT P6SM SCT035
     FM280400 15006KT P6SM SCT030
     FM280900 16005KT P6SM VCFG BKN009
     FM281700 16007KT P6SM FEW012=



000
FTUS45 KABQ 271700 RRA
TAFROW
TAF
KROW 271745Z 2718/2818 17009KT P6SM OVC015
      TEMPO 2718/2720 FEW015
     FM272000 16010KT P6SM FEW035
     FM280400 15006KT P6SM SCT030
     FM280900 16005KT P6SM VCFG BKN009
     FM281700 16007KT P6SM FEW012=



000
FTUS45 KABQ 271700 RRA
TAFABQ
TAF
KABQ 271745Z 2718/2818 20011KT P6SM FEW060 SCT150
     FM272100 18012G20KT P6SM SCT060 BKN150
     FM280300 13008KT P6SM BKN120
     FM281600 17012KT P6SM FEW060 BKN090=



000
FTUS45 KABQ 271700 RRA
TAFLVS
TAF
KLVS 271745Z 2718/2818 20010G20KT P6SM SCT045
     FM272000 19015G25KT P6SM SCT050
     FM280200 18011KT P6SM SCT080
     FM280900 19008KT P6SM VCFG FEW012
      TEMPO 2810/2814 3SM BR BKN010
     FM281700 19007KT P6SM FEW025=



000
FTUS45 KABQ 271700 RRA
TAFTCC
TAF
KTCC 271745Z 2718/2818 21016G24KT P6SM SKC
     FM280300 18010KT P6SM BKN100
     FM281000 20007KT P6SM BKN050=



000
FTUS45 KABQ 271700 RRA
TAFFMN
TAF
KFMN 271745Z 2718/2818 12007KT P6SM FEW060 SCT110
     FM272100 18008KT P6SM SCT070 SCT120
     FM272300 18010G16KT P6SM VCTS SCT070CB BKN150
      TEMPO 2800/2802 5SM -TSRA OVC035CB
     FM280200 17011KT P6SM VCSH SCT060 BKN100
     FM281400 12007KT P6SM FEW060 BKN110=



000
FTUS45 KABQ 271700 RRA
TAFGUP
TAF
KGUP 271745Z 2718/2818 21007KT P6SM FEW060 SCT120
     FM272100 20010G18KT P6SM VCTS SCT060CB BKN120
      TEMPO 2721/2723 VRB15G30KT -TSRA BKN050CB
     FM280000 18011KT P6SM VCSH SCT060 BKN090
      TEMPO 2803/2807 5SM -TSRA OVC030CB
     FM281500 20010KT P6SM SCT050 SCT090=



000
FTUS45 KABQ 271700 RRA
TAFSAF
TAF
KSAF 271745Z 2718/2818 21010KT P6SM FEW060 SCT150
     FM280100 14009KT P6SM SCT050 BKN110
     FM281700 18010KT P6SM FEW060 SCT120=



    US Dept of Commerce
    National Oceanic and Atmospheric Administration
    National Weather Service
    1325 East West Highway
    Silver Spring, MD 20910
    Page Author: NWS Internet Services Team
Disclaimer
Information Quality
Credits
Glossary
Privacy Policy
Freedom of Information Act (FOIA)
About Us
Career Opportunities